Time;durP1;ratioP1;P1;durP2;ratioP2;P2;SDS_P1;SDS_P2;PMS_P1;PMS_P2;Temp;Humidity;BMP_temperature;BMP_pressure;BME280_temperature;BME280_humidity;BME280_pressure;Samples;Min_cycle;Max_cycle;Signal;HPM_P1;HPM_P2
2022/01/18 00:02:23;;;;;;;0.40;0.20;;;1.90;99.90;;;;;;5091493;28;20405;-72
2022/01/18 00:04:49;;;;;;;0.40;0.20;;;1.90;99.90;;;;;;5091950;28;20409;-73
2022/01/18 00:07:15;;;;;;;0.40;0.30;;;1.90;99.90;;;;;;5091169;28;20757;-72
2022/01/18 00:09:40;;;;;;;0.80;0.80;;;1.80;99.90;;;;;;5091674;28;20378;-72
2022/01/18 00:12:30;;;;;;;1.00;0.90;;;1.80;99.90;;;;;;5091900;28;20394;-73
2022/01/18 00:15:18;;;;;;;0.40;0.20;;;1.80;99.90;;;;;;5073033;28;20409;-72
2022/01/18 00:17:52;;;;;;;0.40;0.20;;;1.70;99.90;;;;;;5091512;28;20831;-72
2022/01/18 00:20:27;;;;;;;0.50;0.50;;;1.70;99.90;;;;;;5091110;28;20389;-73
2022/01/18 00:22:52;;;;;;;0.40;0.20;;;1.60;99.90;;;;;;5073945;28;20897;-72
2022/01/18 00:25:19;;;;;;;0.40;0.30;;;1.60;99.90;;;;;;5091547;28;20463;-74
2022/01/18 00:27:44;;;;;;;0.40;0.20;;;1.60;99.90;;;;;;5091727;28;20386;-72
2022/01/18 00:33:00;;;;;;;0.40;0.20;;;1.60;99.90;;;;;;5091017;28;20413;-72
2022/01/18 00:35:31;;;;;;;0.40;0.30;;;1.70;99.90;;;;;;5072614;28;20874;-75
2022/01/18 00:37:58;;;;;;;0.40;0.20;;;1.80;99.90;;;;;;5091687;28;20417;-73
2022/01/18 00:40:24;;;;;;;0.40;0.30;;;1.60;99.90;;;;;;5091458;28;20386;-74
2022/01/18 00:42:50;;;;;;;0.40;0.20;;;1.60;99.90;;;;;;5090966;28;20849;-72
2022/01/18 00:45:16;;;;;;;0.40;0.40;;;1.60;99.90;;;;;;5107052;28;20483;-72
2022/01/18 00:47:42;;;;;;;0.40;0.20;;;1.60;99.90;;;;;;5111083;28;20397;-72
2022/01/18 00:50:09;;;;;;;0.40;0.20;;;1.60;99.90;;;;;;5111618;28;20841;-72
2022/01/18 00:52:40;;;;;;;0.40;0.30;;;1.50;99.90;;;;;;5092804;28;20396;-74
2022/01/18 00:55:06;;;;;;;0.40;0.20;;;1.40;99.90;;;;;;5111676;28;20391;-72
2022/01/18 00:57:31;;;;;;;0.40;0.30;;;1.50;99.90;;;;;;5110435;28;20430;-72
2022/01/18 00:59:58;;;;;;;0.40;0.20;;;1.50;99.90;;;;;;5099704;28;20774;-72
2022/01/18 01:02:23;;;;;;;0.40;0.30;;;1.60;99.90;;;;;;5111322;28;20410;-73
2022/01/18 01:04:50;;;;;;;0.40;0.30;;;1.50;99.90;;;;;;5110202;28;20416;-73
2022/01/18 01:07:18;;;;;;;0.40;0.20;;;1.40;99.90;;;;;;5111029;28;20429;-73
2022/01/18 01:09:43;;;;;;;0.40;0.40;;;1.40;99.90;;;;;;5110928;28;20376;-74
2022/01/18 01:12:11;;;;;;;0.40;0.30;;;1.40;99.90;;;;;;5110705;28;20376;-72
2022/01/18 01:14:38;;;;;;;0.40;0.20;;;1.40;99.90;;;;;;5092859;28;20412;-73
2022/01/18 01:17:22;;;;;;;0.40;0.30;;;1.40;99.90;;;;;;5110218;28;20588;-72
2022/01/18 01:44:25;;;;;;;0.40;0.25;;;1.40;99.90;;;;;;5108579;28;20394;-73
2022/01/18 01:46:22;;;;;;;0.40;0.20;;;1.50;99.90;;;;;;5078540;28;20863;-73
2022/01/18 01:48:53;;;;;;;0.40;0.20;;;1.70;99.90;;;;;;5090525;28;20384;-72
2022/01/18 01:51:20;;;;;;;0.40;0.40;;;1.50;99.90;;;;;;5089634;28;20371;-73
2022/01/18 01:53:46;;;;;;;0.40;0.20;;;1.60;99.90;;;;;;5090496;28;20378;-73
2022/01/18 01:56:11;;;;;;;0.50;0.50;;;1.50;99.90;;;;;;5090060;28;20502;-74
2022/01/18 01:58:37;;;;;;;0.40;0.20;;;1.50;99.90;;;;;;5089587;28;20436;-72
2022/01/18 02:01:06;;;;;;;0.40;0.20;;;1.60;99.90;;;;;;5072246;28;20913;-72
2022/01/18 02:03:32;;;;;;;0.40;0.40;;;1.60;99.90;;;;;;5089634;28;20435;-72
2022/01/18 02:05:58;;;;;;;0.40;0.20;;;1.70;99.90;;;;;;5090259;28;20378;-72
2022/01/18 02:08:24;;;;;;;0.40;0.30;;;1.70;99.90;;;;;;5089303;28;20458;-73
2022/01/18 02:10:49;;;;;;;0.40;0.30;;;1.70;99.90;;;;;;5090451;28;20371;-72
2022/01/18 02:13:15;;;;;;;0.40;0.20;;;1.70;99.90;;;;;;5090645;28;20823;-72
2022/01/18 02:16:08;;;;;;;0.40;0.20;;;1.60;99.90;;;;;;5070936;28;20421;-72
2022/01/18 02:24:08;;;;;;;0.40;0.20;;;1.40;99.90;;;;;;5090063;28;20373;-72
2022/01/18 02:26:34;;;;;;;0.40;0.20;;;1.50;99.90;;;;;;5089715;28;20489;-74
2022/01/18 02:29:01;;;;;;;0.40;0.20;;;1.40;99.90;;;;;;5089708;28;20383;-72
2022/01/18 02:31:27;;;;;;;0.40;0.40;;;1.50;99.90;;;;;;5092924;28;20378;-72
2022/01/18 02:33:53;;;;;;;0.40;0.30;;;1.40;99.90;;;;;;5093091;28;20421;-72
2022/01/18 02:36:19;;;;;;;0.40;0.20;;;1.30;99.90;;;;;;5093599;28;20414;-72
2022/01/18 02:38:47;;;;;;;0.60;0.60;;;1.40;99.90;;;;;;5092827;28;20381;-73
2022/01/18 02:41:25;;;;;;;0.40;0.20;;;1.40;99.90;;;;;;5075455;28;20486;-72
2022/01/18 02:43:55;;;;;;;0.50;0.50;;;1.40;99.90;;;;;;5096530;28;20426;-73
2022/01/18 02:46:21;;;;;;;0.40;0.30;;;1.30;99.90;;;;;;5095789;28;20503;-72
2022/01/18 02:48:48;;;;;;;0.40;0.20;;;1.50;99.90;;;;;;5113532;28;20476;-74
2022/01/18 02:51:13;;;;;;;0.40;0.20;;;1.40;99.90;;;;;;5113100;28;20433;-72
2022/01/18 02:54:00;;;;;;;0.60;0.60;;;1.40;99.90;;;;;;5113976;28;20487;-72
2022/01/18 02:56:45;;;;;;;0.40;0.20;;;1.50;99.90;;;;;;5113781;28;20450;-72
2022/01/18 02:59:24;;;;;;;0.40;0.20;;;1.50;99.90;;;;;;5085955;28;20890;-72
2022/01/18 03:04:43;;;;;;;0.40;0.28;;;1.70;99.90;;;;;;5112731;28;20388;-73
2022/01/18 03:07:09;;;;;;;0.40;0.20;;;1.60;99.90;;;;;;5112664;28;20728;-73
2022/01/18 03:09:35;;;;;;;0.40;0.20;;;1.60;99.90;;;;;;5113797;28;20423;-72
2022/01/18 03:12:02;;;;;;;0.40;0.30;;;1.60;99.90;;;;;;5113534;28;20493;-72
2022/01/18 03:14:28;;;;;;;0.40;0.20;;;1.70;99.90;;;;;;5112547;28;20511;-72
2022/01/18 03:16:53;;;;;;;0.40;0.20;;;1.70;99.90;;;;;;5113355;28;20499;-72
2022/01/18 03:19:19;;;;;;;0.40;0.28;;;1.90;99.90;;;;;;5112958;28;20835;-73
2022/01/18 03:21:45;;;;;;;0.40;0.20;;;1.90;99.90;;;;;;5113237;28;20379;-72
2022/01/18 03:25:00;;;;;;;0.80;0.80;;;1.90;99.90;;;;;;5113090;28;20380;-72
2022/01/18 03:29:44;;;;;;;0.40;0.20;;;1.90;99.90;;;;;;5113011;28;20411;-72
2022/01/18 03:32:10;;;;;;;0.40;0.20;;;1.90;99.90;;;;;;5112796;28;20377;-72
2022/01/18 03:34:36;;;;;;;0.40;0.20;;;1.90;99.90;;;;;;5112144;28;20402;-73
2022/01/18 03:37:02;;;;;;;0.40;0.20;;;2.10;99.90;;;;;;5112727;28;20451;-73
2022/01/18 03:39:28;;;;;;;0.40;0.20;;;2.00;99.90;;;;;;5112497;28;20437;-72
2022/01/18 03:41:57;;;;;;;0.40;0.20;;;2.00;99.90;;;;;;5112308;28;20388;-72
2022/01/18 03:44:25;;;;;;;0.40;0.20;;;2.00;99.90;;;;;;5086197;28;20455;-72
2022/01/18 03:46:53;;;;;;;0.40;0.27;;;1.90;99.90;;;;;;5092195;28;20396;-72
2022/01/18 03:49:22;;;;;;;0.40;0.20;;;1.90;99.90;;;;;;5092368;28;20386;-72
2022/01/18 03:51:48;;;;;;;1.50;0.70;;;2.00;99.90;;;;;;5091404;28;20398;-72
2022/01/18 03:54:20;;;;;;;0.40;0.20;;;2.00;99.90;;;;;;5091897;28;20385;-72
2022/01/18 03:56:46;;;;;;;0.40;0.20;;;2.10;99.90;;;;;;5091395;28;20409;-72
2022/01/18 03:59:11;;;;;;;0.47;0.43;;;2.10;99.90;;;;;;5092316;28;20386;-72
2022/01/18 04:01:37;;;;;;;0.40;0.20;;;2.10;99.90;;;;;;5092398;28;20451;-72
2022/01/18 04:04:03;;;;;;;0.40;0.20;;;2.00;99.90;;;;;;5073324;28;20477;-72
2022/01/18 04:06:28;;;;;;;0.40;0.20;;;2.00;99.90;;;;;;5092005;28;20390;-72
2022/01/18 04:08:54;;;;;;;0.70;0.70;;;2.00;99.90;;;;;;5091216;28;20916;-72
2022/01/18 04:11:20;;;;;;;0.40;0.20;;;2.00;99.90;;;;;;5074033;28;20370;-72
2022/01/18 04:13:45;;;;;;;0.40;0.20;;;1.90;99.90;;;;;;5092067;28;20389;-74
2022/01/18 04:16:11;;;;;;;0.40;0.20;;;2.00;99.90;;;;;;5073051;28;20414;-72
2022/01/18 04:29:09;;;;;;;0.40;0.20;;;1.80;99.90;;;;;;5091053;28;20378;-73
2022/01/18 04:31:34;;;;;;;0.40;0.20;;;1.70;99.90;;;;;;5091860;28;20389;-73
2022/01/18 04:34:01;;;;;;;0.40;0.20;;;1.60;99.90;;;;;;5091651;28;20374;-74
2022/01/18 04:36:27;;;;;;;0.40;0.20;;;1.70;99.90;;;;;;5073300;28;20878;-73
2022/01/18 04:38:55;;;;;;;0.40;0.20;;;1.70;99.90;;;;;;5091879;28;20436;-73
2022/01/18 04:41:27;;;;;;;0.40;0.20;;;1.60;99.90;;;;;;5091102;28;20386;-73
2022/01/18 04:49:23;;;;;;;0.40;0.20;;;1.60;99.90;;;;;;5107656;28;20398;-74
2022/01/18 04:51:49;;;;;;;0.40;0.20;;;1.60;99.90;;;;;;5100210;28;20385;-73
2022/01/18 04:54:16;;;;;;;0.40;0.20;;;1.60;99.90;;;;;;5110797;28;20706;-74
2022/01/18 04:59:10;;;;;;;0.40;0.20;;;1.50;99.90;;;;;;5102519;28;20934;-73
2022/01/18 05:01:38;;;;;;;0.40;0.20;;;1.50;99.90;;;;;;5077973;28;20394;-73
2022/01/18 05:04:04;;;;;;;0.40;0.20;;;1.40;99.90;;;;;;5103690;28;20382;-74
2022/01/18 05:06:29;;;;;;;0.40;0.20;;;1.40;99.90;;;;;;5072909;28;20497;-73
2022/01/18 05:08:56;;;;;;;0.40;0.30;;;1.30;99.90;;;;;;5111790;28;20400;-73
2022/01/18 05:11:25;;;;;;;0.70;0.70;;;1.30;99.90;;;;;;5093390;28;20372;-74
2022/01/18 05:14:19;;;;;;;0.40;0.30;;;1.20;99.90;;;;;;5110913;28;20396;-73
2022/01/18 05:24:20;;;;;;;0.40;0.20;;;1.00;99.90;;;;;;5103974;28;20382;-72
2022/01/18 05:26:46;;;;;;;0.40;0.20;;;0.90;99.90;;;;;;5072448;28;20382;-73
2022/01/18 05:29:12;;;;;;;0.40;0.20;;;1.00;99.90;;;;;;5091158;28;20754;-73
2022/01/18 05:31:38;;;;;;;0.40;0.20;;;0.80;99.90;;;;;;5100308;28;20380;-74
2022/01/18 05:34:04;;;;;;;0.90;0.70;;;0.90;99.90;;;;;;5110646;28;20483;-74
2022/01/18 05:36:30;;;;;;;0.40;0.20;;;0.90;99.90;;;;;;5092433;28;20408;-73
2022/01/18 05:38:56;;;;;;;0.40;0.20;;;0.90;99.90;;;;;;5106128;28;20388;-73
2022/01/18 05:41:21;;;;;;;0.40;0.20;;;0.80;99.90;;;;;;5085867;28;20380;-73
2022/01/18 05:43:47;;;;;;;0.40;0.20;;;0.70;99.90;;;;;;5092444;28;20411;-74
2022/01/18 05:46:13;;;;;;;0.70;0.70;;;0.80;99.90;;;;;;5111033;28;20390;-73
2022/01/18 05:48:38;;;;;;;0.40;0.40;;;0.80;99.90;;;;;;5111585;28;20377;-73
2022/01/18 05:51:04;;;;;;;0.47;0.47;;;0.90;99.90;;;;;;5110319;28;20724;-73
2022/01/18 05:53:32;;;;;;;0.60;0.60;;;0.80;99.90;;;;;;5111040;28;20520;-73
2022/01/18 05:55:59;;;;;;;0.40;0.20;;;0.80;99.90;;;;;;5110260;28;20832;-74
2022/01/18 05:58:25;;;;;;;0.40;0.28;;;0.70;99.90;;;;;;5103814;28;20406;-73
2022/01/18 06:00:53;;;;;;;0.40;0.20;;;0.80;99.90;;;;;;5072487;28;20429;-74
2022/01/18 06:03:27;;;;;;;0.40;0.30;;;0.70;99.90;;;;;;5071845;28;20443;-73
2022/01/18 06:08:42;;;;;;;0.40;0.30;;;0.70;99.90;;;;;;5099579;28;20454;-74
2022/01/18 06:11:08;;;;;;;0.40;0.20;;;0.50;99.90;;;;;;5075603;28;20390;-71
2022/01/18 06:13:34;;;;;;;0.40;0.20;;;0.50;99.90;;;;;;5094468;28;20381;-71
2022/01/18 06:16:00;;;;;;;0.40;0.30;;;0.60;99.90;;;;;;5093995;28;20425;-71
2022/01/18 06:18:26;;;;;;;0.40;0.20;;;0.50;99.90;;;;;;5075396;28;20609;-72
2022/01/18 06:20:51;;;;;;;5.20;0.90;;;0.50;99.90;;;;;;5094115;28;20389;-72
2022/01/18 06:23:17;;;;;;;0.40;0.20;;;0.60;99.90;;;;;;5095585;28;20433;-73
2022/01/18 06:25:43;;;;;;;0.40;0.20;;;0.50;99.90;;;;;;5105645;28;20408;-72
2022/01/18 06:28:09;;;;;;;0.40;0.20;;;0.60;99.90;;;;;;5108866;28;20775;-72
2022/01/18 06:30:34;;;;;;;0.40;0.30;;;0.60;99.90;;;;;;5097882;28;20389;-73
2022/01/18 06:33:00;;;;;;;1.10;1.00;;;0.60;99.90;;;;;;5099620;28;20465;-73
2022/01/18 06:35:26;;;;;;;0.40;0.20;;;0.60;99.90;;;;;;5108714;28;20467;-73
2022/01/18 06:37:52;;;;;;;0.40;0.30;;;0.60;99.90;;;;;;5081189;28;20489;-72
2022/01/18 06:40:17;;;;;;;0.40;0.20;;;0.70;99.90;;;;;;5094119;28;20382;-74
2022/01/18 06:42:43;;;;;;;0.40;0.20;;;0.60;99.90;;;;;;5095419;28;20377;-73
2022/01/18 06:45:10;;;;;;;0.40;0.40;;;0.70;99.90;;;;;;5100885;28;20388;-72
2022/01/18 06:47:36;;;;;;;0.40;0.20;;;0.70;99.90;;;;;;5102462;28;20385;-73
2022/01/18 06:50:04;;;;;;;0.40;0.20;;;0.80;99.90;;;;;;5108718;28;20383;-73
2022/01/18 06:52:30;;;;;;;0.40;0.20;;;0.80;99.90;;;;;;5093693;28;20394;-73
2022/01/18 06:54:56;;;;;;;0.40;0.20;;;0.90;99.90;;;;;;5097890;28;20382;-73
2022/01/18 06:57:21;;;;;;;0.40;0.20;;;1.10;99.90;;;;;;5075529;28;20463;-73
2022/01/18 06:59:47;;;;;;;0.40;0.20;;;1.20;99.90;;;;;;5105865;28;20400;-73
2022/01/18 07:02:13;;;;;;;0.60;0.50;;;1.20;99.90;;;;;;5096712;28;20838;-73
2022/01/18 07:04:38;;;;;;;0.40;0.20;;;1.20;99.90;;;;;;5094806;28;20408;-73
2022/01/18 07:07:04;;;;;;;0.40;0.20;;;1.30;99.90;;;;;;5106541;28;20384;-72
2022/01/18 07:09:32;;;;;;;0.40;0.40;;;1.40;99.90;;;;;;5105095;28;20881;-73
2022/01/18 07:11:59;;;;;;;0.40;0.20;;;1.40;99.90;;;;;;5084218;28;21181;-73
2022/01/18 07:14:25;;;;;;;0.70;0.70;;;1.30;99.90;;;;;;5103195;28;20488;-73
2022/01/18 07:16:51;;;;;;;0.40;0.20;;;1.20;99.90;;;;;;5088479;28;20459;-73
2022/01/18 07:19:17;;;;;;;0.40;0.20;;;1.20;99.90;;;;;;5101464;28;20373;-74
2022/01/18 07:21:42;;;;;;;0.40;0.40;;;1.20;99.90;;;;;;5097322;28;20485;-75
2022/01/18 07:24:17;;;;;;;0.40;0.20;;;1.30;99.90;;;;;;5099718;28;20377;-73
2022/01/18 07:26:44;;;;;;;0.40;0.40;;;1.40;99.90;;;;;;5095475;28;20410;-75
2022/01/18 07:29:09;;;;;;;0.40;0.20;;;1.40;99.90;;;;;;5080306;28;20386;-73
2022/01/18 07:31:35;;;;;;;0.40;0.20;;;1.50;99.90;;;;;;5098271;28;20387;-73
2022/01/18 07:34:01;;;;;;;0.40;0.20;;;1.50;99.90;;;;;;5077563;28;20401;-73
2022/01/18 07:36:27;;;;;;;0.40;0.20;;;1.50;99.90;;;;;;5096526;28;20459;-74
2022/01/18 07:38:55;;;;;;;0.40;0.20;;;1.50;99.90;;;;;;5095836;28;20374;-76
2022/01/18 07:41:20;;;;;;;0.40;0.20;;;1.50;99.90;;;;;;5097112;28;20382;-73
2022/01/18 07:43:46;;;;;;;0.40;0.20;;;1.60;99.90;;;;;;5098448;28;20427;-75
2022/01/18 07:46:12;;;;;;;0.40;0.20;;;1.60;99.90;;;;;;5096312;28;21284;-74
2022/01/18 07:48:37;;;;;;;0.40;0.30;;;1.60;99.90;;;;;;5096538;28;20379;-73
2022/01/18 07:51:03;;;;;;;0.40;0.20;;;1.60;99.90;;;;;;5097312;28;20417;-73
2022/01/18 07:53:29;;;;;;;0.40;0.20;;;1.50;99.90;;;;;;5097388;28;20411;-73
2022/01/18 07:55:55;;;;;;;0.40;0.20;;;1.50;99.90;;;;;;5095016;28;20889;-73
2022/01/18 07:58:20;;;;;;;0.40;0.20;;;1.50;99.90;;;;;;5097440;28;20424;-73
2022/01/18 08:00:47;;;;;;;0.40;0.30;;;1.60;99.90;;;;;;5080552;28;20409;-73
2022/01/18 08:03:13;;;;;;;0.40;0.30;;;1.60;99.90;;;;;;5098597;28;20448;-74
2022/01/18 08:05:39;;;;;;;0.40;0.40;;;1.60;99.90;;;;;;5095873;28;20602;-73
2022/01/18 08:08:05;;;;;;;0.40;0.20;;;1.60;99.90;;;;;;5096672;28;20387;-73
2022/01/18 08:10:32;;;;;;;0.40;0.20;;;1.70;99.90;;;;;;5098091;28;20372;-73
2022/01/18 08:13:01;;;;;;;0.40;0.20;;;1.70;99.90;;;;;;5096961;28;20400;-73
2022/01/18 08:15:36;;;;;;;0.40;0.20;;;1.80;99.90;;;;;;5092342;28;20417;-74
2022/01/18 08:18:02;;;;;;;0.40;0.20;;;1.90;99.90;;;;;;5073692;28;20406;-73
2022/01/18 08:20:28;;;;;;;0.40;0.30;;;2.00;99.90;;;;;;5092026;28;20461;-73
2022/01/18 08:22:53;;;;;;;0.40;0.30;;;1.90;99.90;;;;;;5091501;28;20946;-73
2022/01/18 08:25:19;;;;;;;0.40;0.30;;;1.90;99.90;;;;;;5090961;28;20402;-73
2022/01/18 08:27:45;;;;;;;0.40;0.20;;;2.00;99.90;;;;;;5090775;28;20386;-73
2022/01/18 08:30:12;;;;;;;0.40;0.25;;;2.00;99.90;;;;;;5091167;28;20437;-75
2022/01/18 08:32:39;;;;;;;0.40;0.30;;;2.00;99.90;;;;;;5091321;28;20375;-73
2022/01/18 08:35:06;;;;;;;0.40;0.20;;;2.10;99.90;;;;;;5072977;28;20806;-74
2022/01/18 08:37:31;;;;;;;0.40;0.20;;;2.10;99.90;;;;;;5090358;28;20436;-73
2022/01/18 08:39:57;;;;;;;0.40;0.20;;;2.30;99.90;;;;;;5091019;28;20727;-73
2022/01/18 08:42:23;;;;;;;0.50;0.50;;;2.30;99.90;;;;;;5090439;28;20374;-73
2022/01/18 08:44:49;;;;;;;2.90;1.00;;;2.30;99.90;;;;;;5090898;28;20394;-74
2022/01/18 08:47:16;;;;;;;0.60;0.60;;;2.40;99.90;;;;;;5091080;28;20382;-72
2022/01/18 08:49:42;;;;;;;0.40;0.20;;;2.30;99.90;;;;;;5072495;28;20561;-72
2022/01/18 08:52:08;;;;;;;0.40;0.30;;;2.40;99.90;;;;;;5091493;28;20386;-71
2022/01/18 08:54:34;;;;;;;0.40;0.20;;;2.50;99.90;;;;;;5090684;28;20390;-72
2022/01/18 08:57:01;;;;;;;0.40;0.20;;;2.70;99.90;;;;;;5091548;28;20434;-72
2022/01/18 08:59:28;;;;;;;0.40;0.30;;;2.70;99.90;;;;;;5106049;28;20469;-72
2022/01/18 09:01:53;;;;;;;0.40;0.20;;;2.70;99.90;;;;;;5111812;28;20427;-72
2022/01/18 09:04:20;;;;;;;0.40;0.22;;;2.90;99.90;;;;;;5111302;28;20415;-72
2022/01/18 09:06:48;;;;;;;0.40;0.30;;;3.10;99.90;;;;;;5111158;28;20388;-72
2022/01/18 09:09:16;;;;;;;0.40;0.30;;;3.20;99.90;;;;;;5111565;28;20414;-71
2022/01/18 09:11:44;;;;;;;0.40;0.20;;;3.40;99.90;;;;;;5110791;28;20384;-72
2022/01/18 09:14:10;;;;;;;0.50;0.50;;;3.60;99.90;;;;;;5111132;28;20434;-72
2022/01/18 09:16:35;;;;;;;0.40;0.20;;;3.60;99.90;;;;;;5110762;28;20399;-73
2022/01/18 09:19:01;;;;;;;1.00;1.00;;;3.60;99.90;;;;;;5111477;28;20381;-72
2022/01/18 09:21:27;;;;;;;1.00;0.90;;;3.60;99.90;;;;;;5111486;28;20782;-72
2022/01/18 09:23:53;;;;;;;0.80;0.70;;;3.70;99.90;;;;;;5111066;28;20380;-72
2022/01/18 09:26:19;;;;;;;0.40;0.20;;;3.90;99.90;;;;;;5111402;28;20430;-72
2022/01/18 09:28:44;;;;;;;1.30;0.90;;;3.90;99.90;;;;;;5110799;28;20914;-73
2022/01/18 09:31:10;;;;;;;0.40;0.20;;;3.80;99.90;;;;;;5111318;28;20457;-72
2022/01/18 09:33:36;;;;;;;0.50;0.50;;;3.90;99.90;;;;;;5110446;28;20399;-74
2022/01/18 09:36:02;;;;;;;0.40;0.40;;;3.90;99.90;;;;;;5111104;28;20429;-72
2022/01/18 09:38:28;;;;;;;0.40;0.20;;;3.90;99.90;;;;;;5111247;28;20384;-72
2022/01/18 09:40:54;;;;;;;1.20;1.10;;;3.80;99.90;;;;;;5109925;28;20411;-72
2022/01/18 09:43:20;;;;;;;0.40;0.20;;;3.90;99.90;;;;;;5111166;28;20380;-72
2022/01/18 09:45:46;;;;;;;0.40;0.27;;;4.00;99.90;;;;;;5109799;28;20396;-73
2022/01/18 09:48:13;;;;;;;0.40;0.20;;;4.20;99.90;;;;;;5110868;28;20471;-72
2022/01/18 09:50:42;;;;;;;0.40;0.30;;;4.10;99.90;;;;;;5110842;28;20765;-74
2022/01/18 09:53:10;;;;;;;0.40;0.20;;;4.20;99.90;;;;;;5111600;28;20450;-72
2022/01/18 09:55:37;;;;;;;0.40;0.20;;;4.10;99.90;;;;;;5110986;28;20385;-72
2022/01/18 09:58:07;;;;;;;0.40;0.30;;;4.30;99.90;;;;;;5106121;28;20611;-71
2022/01/18 10:00:35;;;;;;;0.40;0.20;;;4.50;99.90;;;;;;5090807;28;20386;-72
2022/01/18 10:03:01;;;;;;;1.60;0.80;;;4.50;99.90;;;;;;5090000;28;20846;-71
2022/01/18 10:05:33;;;;;;;0.40;0.20;;;4.70;99.90;;;;;;5090852;28;20382;-72
2022/01/18 10:08:13;;;;;;;0.60;0.60;;;5.00;99.90;;;;;;5071949;28;20385;-72
2022/01/18 10:10:41;;;;;;;0.40;0.20;;;5.20;99.90;;;;;;5090677;28;20378;-72
2022/01/18 10:13:08;;;;;;;0.40;0.20;;;5.40;99.90;;;;;;5071585;28;20394;-72
2022/01/18 10:15:35;;;;;;;0.40;0.20;;;5.50;99.90;;;;;;5090328;28;20417;-72
2022/01/18 10:18:08;;;;;;;0.40;0.20;;;5.80;99.90;;;;;;5089607;28;20393;-73
2022/01/18 10:20:52;;;;;;;0.40;0.20;;;6.00;99.90;;;;;;5072559;28;20382;-72
2022/01/18 10:23:24;;;;;;;0.40;0.20;;;6.20;99.90;;;;;;5071666;28;20481;-72
2022/01/18 10:25:51;;;;;;;0.50;0.50;;;6.30;99.90;;;;;;5090523;28;20386;-72
2022/01/18 10:28:34;;;;;;;0.40;0.30;;;6.50;99.90;;;;;;5089682;28;20465;-72
2022/01/18 10:31:05;;;;;;;0.40;0.35;;;6.70;99.90;;;;;;5089768;28;20382;-73
2022/01/18 10:33:36;;;;;;;0.40;0.20;;;6.80;99.90;;;;;;5090085;28;20506;-72
2022/01/18 10:36:12;;;;;;;0.40;0.20;;;6.90;99.90;;;;;;5089771;28;20461;-74
2022/01/18 10:38:44;;;;;;;0.40;0.20;;;7.10;99.90;;;;;;5090622;28;20398;-72
2022/01/18 10:41:30;;;;;;;0.40;0.20;;;7.20;99.90;;;;;;5089496;28;20378;-72
2022/01/18 10:44:06;;;;;;;0.40;0.20;;;7.20;99.90;;;;;;5090386;28;20390;-72
2022/01/18 10:46:35;;;;;;;0.40;0.20;;;7.30;99.90;;;;;;5090131;28;20386;-72
2022/01/18 10:49:01;;;;;;;0.40;0.30;;;7.50;99.90;;;;;;5090220;28;20457;-72
2022/01/18 10:51:32;;;;;;;0.40;0.20;;;7.60;99.90;;;;;;5089359;28;20370;-72
2022/01/18 10:54:00;;;;;;;0.40;0.20;;;7.60;99.90;;;;;;5094170;28;20390;-72
2022/01/18 10:56:36;;;;;;;0.40;0.20;;;7.60;99.90;;;;;;5074676;28;20876;-72
2022/01/18 10:59:02;;;;;;;0.40;0.20;;;7.70;99.90;;;;;;5106008;28;20467;-72
2022/01/18 11:01:28;;;;;;;0.40;0.20;;;7.80;99.90;;;;;;5113206;28;20484;-72
2022/01/18 11:04:16;;;;;;;0.40;0.22;;;7.90;99.90;;;;;;5114072;28;20372;-72
2022/01/18 11:07:00;;;;;;;0.40;0.20;;;8.00;99.90;;;;;;5113384;28;20377;-72
2022/01/18 11:09:26;;;;;;;1.00;0.60;;;8.20;99.30;;;;;;5113149;28;20369;-73
2022/01/18 11:11:52;;;;;;;0.40;0.20;;;8.40;98.80;;;;;;5095493;28;20430;-73
2022/01/18 11:14:21;;;;;;;0.40;0.20;;;8.30;98.50;;;;;;5091742;28;20409;-72
2022/01/18 11:16:48;;;;;;;0.40;0.20;;;8.40;98.90;;;;;;5092853;28;20410;-72
2022/01/18 11:21:49;;;;;;;0.40;0.20;;;8.90;97.80;;;;;;5075277;28;20880;-72
2022/01/18 11:24:16;;;;;;;0.40;0.20;;;9.10;97.00;;;;;;5092901;28;20374;-72
2022/01/18 11:26:44;;;;;;;0.40;0.20;;;9.40;96.20;;;;;;5092043;28;20382;-72
2022/01/18 11:29:11;;;;;;;0.40;0.20;;;9.70;95.20;;;;;;5093126;28;20384;-72
2022/01/18 11:31:38;;;;;;;0.40;0.20;;;10.30;92.00;;;;;;5091926;28;20410;-73
2022/01/18 11:34:07;;;;;;;0.40;0.20;;;10.70;91.30;;;;;;5093073;28;20439;-72
2022/01/18 11:36:39;;;;;;;0.40;0.20;;;10.80;90.00;;;;;;5092312;28;20437;-74
2022/01/18 11:39:07;;;;;;;0.40;0.20;;;10.30;89.40;;;;;;5093080;28;20385;-72
2022/01/18 11:41:35;;;;;;;0.40;0.30;;;11.20;87.20;;;;;;5074451;28;20378;-74
2022/01/18 11:44:13;;;;;;;0.40;0.30;;;11.20;85.60;;;;;;5092250;28;20878;-73
2022/01/18 11:46:50;;;;;;;0.40;0.20;;;11.30;87.20;;;;;;5092078;28;20393;-74
2022/01/18 11:49:28;;;;;;;0.40;0.20;;;11.60;84.60;;;;;;5074862;28;20780;-72
2022/01/18 11:51:58;;;;;;;0.50;0.40;;;11.90;83.90;;;;;;5091640;28;20374;-73
2022/01/18 11:57:22;;;;;;;0.40;0.40;;;11.90;82.60;;;;;;5091657;28;20413;-72
2022/01/18 11:59:49;;;;;;;0.40;0.30;;;11.80;80.00;;;;;;5073102;28;20392;-73
2022/01/18 12:02:30;;;;;;;0.40;0.30;;;11.70;80.40;;;;;;5071763;28;20900;-72
2022/01/18 12:04:58;;;;;;;0.40;0.30;;;11.70;81.60;;;;;;5053390;28;20396;-73
2022/01/18 12:07:36;;;;;;;0.40;0.30;;;11.80;80.50;;;;;;5054029;28;20399;-72
2022/01/18 12:10:33;;;;;;;0.40;0.20;;;11.90;79.50;;;;;;5071397;28;20384;-72
2022/01/18 12:13:10;;;;;;;0.40;0.30;;;11.90;80.00;;;;;;5035836;28;20394;-73
2022/01/18 12:15:38;;;;;;;0.40;0.40;;;11.70;79.20;;;;;;5086454;28;20416;-72
2022/01/18 12:18:10;;;;;;;0.40;0.30;;;11.40;78.80;;;;;;5073083;28;20439;-72
2022/01/18 12:20:46;;;;;;;0.40;0.20;;;11.40;78.30;;;;;;5092184;28;20381;-72
2022/01/18 12:23:41;;;;;;;0.40;0.20;;;11.90;78.90;;;;;;5091428;28;20718;-72
2022/01/18 12:26:29;;;;;;;0.40;0.25;;;11.80;79.00;;;;;;5091136;28;20877;-72
2022/01/18 12:29:19;;;;;;;0.40;0.30;;;11.80;78.50;;;;;;5091812;28;20464;-72
2022/01/18 12:34:39;;;;;;;0.40;0.20;;;12.20;77.70;;;;;;5090797;28;20428;-72
2022/01/18 12:37:07;;;;;;;0.40;0.20;;;11.50;77.90;;;;;;5090879;28;20452;-74
2022/01/18 12:45:15;;;;;;;0.40;0.30;;;12.00;77.90;;;;;;5091882;28;20394;-72
2022/01/18 12:47:46;;;;;;;0.50;0.40;;;11.30;78.50;;;;;;5091229;28;20750;-72
2022/01/18 12:50:13;;;;;;;0.40;0.20;;;10.20;82.20;;;;;;5072654;28;20485;-74
2022/01/18 12:52:47;;;;;;;0.55;0.38;;;10.10;84.20;;;;;;5091816;28;20730;-72
2022/01/18 12:55:31;;;;;;;0.40;0.20;;;9.10;88.20;;;;;;5072914;28;20533;-74
2022/01/18 12:58:20;;;;;;;0.70;0.50;;;8.80;91.00;;;;;;5091262;28;20405;-72
2022/01/18 13:00:55;;;;;;;0.40;0.30;;;8.70;91.70;;;;;;5081837;28;20888;-73
2022/01/18 13:03:33;;;;;;;0.40;0.30;;;8.30;92.00;;;;;;5094946;28;20437;-73
2022/01/18 13:06:01;;;;;;;0.40;0.30;;;8.40;92.70;;;;;;5110748;28;20887;-72
2022/01/18 13:08:44;;;;;;;0.40;0.30;;;8.20;92.90;;;;;;5091837;28;20385;-73
2022/01/18 13:11:11;;;;;;;0.40;0.20;;;8.10;93.30;;;;;;5084998;28;20394;-72
2022/01/18 13:13:37;;;;;;;1.00;0.90;;;8.10;93.60;;;;;;5100899;28;20376;-71
2022/01/18 13:26:47;;;;;;;0.40;0.30;;;8.00;94.30;;;;;;5110607;28;20851;-73
2022/01/18 13:29:18;;;;;;;0.40;0.20;;;8.00;94.30;;;;;;5093156;28;20487;-73
2022/01/18 13:31:47;;;;;;;0.40;0.20;;;8.10;94.30;;;;;;5110542;28;20463;-73
2022/01/18 13:34:16;;;;;;;0.40;0.20;;;8.10;94.00;;;;;;5093107;28;20533;-73
2022/01/18 13:36:55;;;;;;;0.40;0.30;;;8.10;94.10;;;;;;5091989;28;20408;-73
2022/01/18 13:39:31;;;;;;;0.40;0.30;;;8.10;94.40;;;;;;5111422;28;20419;-72
2022/01/18 13:42:01;;;;;;;0.70;0.70;;;8.10;94.10;;;;;;5110347;28;20380;-72
2022/01/18 13:44:28;;;;;;;0.40;0.20;;;7.90;94.10;;;;;;5092812;28;20479;-72
2022/01/18 13:46:55;;;;;;;0.40;0.20;;;8.00;93.90;;;;;;5109990;28;20411;-73
2022/01/18 13:49:24;;;;;;;0.40;0.20;;;8.10;93.90;;;;;;5111103;28;20372;-73
2022/01/18 13:52:12;;;;;;;0.40;0.20;;;8.30;93.90;;;;;;5109963;28;20861;-73
2022/01/18 13:54:53;;;;;;;0.40;0.20;;;8.20;93.70;;;;;;5111070;28;20384;-73
2022/01/18 13:57:22;;;;;;;0.40;0.20;;;8.60;93.00;;;;;;5110960;28;20457;-73
2022/01/18 13:59:49;;;;;;;0.70;0.70;;;9.30;91.30;;;;;;5110138;28;20383;-74
2022/01/18 14:02:21;;;;;;;0.40;0.20;;;9.20;91.10;;;;;;5092764;28;20514;-73
2022/01/18 14:05:05;;;;;;;0.40;0.30;;;9.20;91.20;;;;;;5110518;28;20388;-74
2022/01/18 14:07:31;;;;;;;0.40;0.20;;;10.30;89.40;;;;;;5092422;28;20380;-73
2022/01/18 14:10:02;;;;;;;0.40;0.30;;;10.50;85.90;;;;;;5110191;28;20381;-72
2022/01/18 14:12:33;;;;;;;2.40;0.70;;;10.00;86.60;;;;;;5092746;28;20422;-72
2022/01/18 14:15:00;;;;;;;0.40;0.40;;;9.80;89.10;;;;;;5091376;28;20942;-73
2022/01/18 14:17:26;;;;;;;0.40;0.30;;;9.30;90.60;;;;;;5110766;28;20431;-73
2022/01/18 14:20:05;;;;;;;0.40;0.20;;;8.90;90.80;;;;;;5110784;28;20376;-72
2022/01/18 14:22:38;;;;;;;0.40;0.20;;;8.60;91.40;;;;;;5110772;28;20365;-73
2022/01/18 14:25:07;;;;;;;0.50;0.50;;;8.20;92.10;;;;;;5110027;28;20380;-73
2022/01/18 14:27:38;;;;;;;1.00;0.60;;;7.90;93.20;;;;;;5095893;28;20481;-73
2022/01/18 14:30:09;;;;;;;0.40;0.20;;;7.90;93.30;;;;;;5113908;28;20451;-73
2022/01/18 14:32:41;;;;;;;0.40;0.30;;;7.90;93.60;;;;;;5114821;28;20400;-73
2022/01/18 14:35:15;;;;;;;0.40;0.30;;;7.70;94.00;;;;;;5113869;28;20860;-73
2022/01/18 14:37:49;;;;;;;0.40;0.40;;;7.60;94.20;;;;;;5114280;28;20408;-73